EZY14GA EGNT-LIRF
Flight info
| Callsign | EZY14GA |
|---|---|
| Flight time | 2h 38m |
| Altitude | 35000 |
| Route | GIRLI P18 GASKO P16 RIBEL UP16 CROFT UL612 HON DCT XAMAB UL612 OGULO DCT OKASI DCT OKEKO DCT MOU DCT MADIV DCT MOKIP DCT TUFTA DCT KOGAS DCT MEDAM DCT NITAM DCT MOGBO DCT ELB/N0429F360 DCT ELKAP |
| Aircraft | A320/M-SDE2E3FGHIJ1RWXYZ/LB1 |
Departure
| Time | 2026-05-06 14:50 |
|---|---|
| Airport | Newcastle International Airport (EGNT) |
Arrival
| Time | 2026-05-06 17:28 |
|---|---|
| Airport | Rome–Fiumicino Leonardo da Vinci International Airport (LIRF) |
| Time | Latitude | Longitude | Altitude | Speed | Heading |
|---|---|---|---|---|---|
| 2026-05-06 14:29 | 55.03660 | -1.70711 | 268 ft | 0 kts | 4° |
| 2026-05-06 14:29 | 55.03661 | -1.70711 | 267 ft | 0 kts | 4° |
| 2026-05-06 14:39 | 55.03658 | -1.70711 | 267 ft | 3 kts | 4° |
| 2026-05-06 14:39 | 55.03632 | -1.70715 | 267 ft | 3 kts | 4° |
| 2026-05-06 14:39 | 55.03610 | -1.70715 | 267 ft | 4 kts | 334° |
| 2026-05-06 14:40 | 55.03594 | -1.70684 | 267 ft | 4 kts | 282° |
| 2026-05-06 14:40 | 55.03591 | -1.70640 | 267 ft | 4 kts | 272° |
| 2026-05-06 14:40 | 55.03591 | -1.70593 | 267 ft | 4 kts | 267° |
| 2026-05-06 14:40 | 55.03593 | -1.70549 | 267 ft | 1 kts | 264° |
| 2026-05-06 14:45 | 55.03593 | -1.70554 | 267 ft | 1 kts | 264° |
| 2026-05-06 14:45 | 55.03590 | -1.70580 | 267 ft | 3 kts | 257° |
| 2026-05-06 14:45 | 55.03579 | -1.70617 | 267 ft | 5 kts | 231° |
| 2026-05-06 14:45 | 55.03532 | -1.70641 | 267 ft | 10 kts | 181° |
| 2026-05-06 14:46 | 55.03460 | -1.70646 | 267 ft | 10 kts | 182° |
| 2026-05-06 14:46 | 55.03406 | -1.70599 | 267 ft | 9 kts | 129° |
| 2026-05-06 14:46 | 55.03391 | -1.70496 | 267 ft | 10 kts | 81° |
| 2026-05-06 14:46 | 55.03397 | -1.70472 | 267 ft | 0 kts | 66° |
| 2026-05-06 14:49 | 55.03406 | -1.70436 | 266 ft | 20 kts | 66° |
| 2026-05-06 14:49 | 55.03580 | -1.69783 | 260 ft | 95 kts | 65° |
| 2026-05-06 14:50 | 55.03938 | -1.68426 | 253 ft | 149 kts | 66° |
| 2026-05-06 14:50 | 55.04380 | -1.66711 | 850 ft | 152 kts | 67° |
| 2026-05-06 14:50 | 55.04834 | -1.64975 | 1379 ft | 167 kts | 66° |
| 2026-05-06 14:50 | 55.05356 | -1.63019 | 1656 ft | 189 kts | 66° |
| 2026-05-06 14:51 | 55.05941 | -1.60821 | 2108 ft | 206 kts | 66° |
| 2026-05-06 14:51 | 55.06535 | -1.58526 | 2881 ft | 208 kts | 71° |
| 2026-05-06 14:51 | 55.06621 | -1.56031 | 3581 ft | 212 kts | 107° |
| 2026-05-06 14:51 | 55.05810 | -1.53912 | 4088 ft | 226 kts | 144° |
| 2026-05-06 14:52 | 55.04265 | -1.53006 | 4432 ft | 250 kts | 175° |
| 2026-05-06 14:52 | 55.02466 | -1.52898 | 4953 ft | 265 kts | 180° |
| 2026-05-06 14:52 | 55.00599 | -1.52959 | 5693 ft | 271 kts | 182° |
| 2026-05-06 14:52 | 54.98699 | -1.53150 | 6476 ft | 276 kts | 189° |
| 2026-05-06 14:53 | 54.96845 | -1.54073 | 7223 ft | 279 kts | 204° |
| 2026-05-06 14:53 | 54.95142 | -1.55689 | 8006 ft | 280 kts | 212° |
| 2026-05-06 14:53 | 54.93465 | -1.57449 | 8803 ft | 283 kts | 211° |
| 2026-05-06 14:53 | 54.91768 | -1.59207 | 9595 ft | 285 kts | 211° |
| 2026-05-06 14:54 | 54.90047 | -1.60980 | 10289 ft | 292 kts | 211° |
| 2026-05-06 14:54 | 54.88258 | -1.62817 | 10476 ft | 314 kts | 211° |
| 2026-05-06 14:54 | 54.86321 | -1.64803 | 10780 ft | 331 kts | 211° |
| 2026-05-06 14:54 | 54.84318 | -1.66855 | 11394 ft | 336 kts | 212° |
| 2026-05-06 14:55 | 54.82294 | -1.68926 | 12069 ft | 339 kts | 212° |
| 2026-05-06 14:55 | 54.80247 | -1.71018 | 12766 ft | 343 kts | 212° |
| 2026-05-06 14:55 | 54.78184 | -1.73124 | 13434 ft | 346 kts | 212° |
| 2026-05-06 14:55 | 54.76105 | -1.75245 | 14062 ft | 349 kts | 212° |
| 2026-05-06 14:56 | 54.74009 | -1.77378 | 14645 ft | 352 kts | 212° |
| 2026-05-06 14:56 | 54.71860 | -1.79428 | 15233 ft | 356 kts | 206° |
| 2026-05-06 14:56 | 54.69532 | -1.80814 | 15820 ft | 361 kts | 195° |
| 2026-05-06 14:56 | 54.67054 | -1.81623 | 16403 ft | 365 kts | 193° |
| 2026-05-06 14:57 | 54.64546 | -1.82403 | 16982 ft | 367 kts | 193° |
| 2026-05-06 14:57 | 54.62022 | -1.83194 | 17556 ft | 370 kts | 193° |
| 2026-05-06 14:57 | 54.59481 | -1.83997 | 18122 ft | 373 kts | 193° |
| 2026-05-06 14:57 | 54.56925 | -1.84809 | 18623 ft | 376 kts | 193° |
| 2026-05-06 14:58 | 54.54343 | -1.85625 | 19126 ft | 378 kts | 193° |
| 2026-05-06 14:58 | 54.51782 | -1.86434 | 19592 ft | 380 kts | 193° |
| 2026-05-06 14:58 | 54.49168 | -1.87256 | 20079 ft | 382 kts | 193° |
| 2026-05-06 14:58 | 54.46547 | -1.88083 | 20553 ft | 385 kts | 193° |
| 2026-05-06 14:59 | 54.43907 | -1.88917 | 21000 ft | 387 kts | 193° |
| 2026-05-06 14:59 | 54.41248 | -1.89753 | 21461 ft | 390 kts | 193° |
| 2026-05-06 14:59 | 54.38578 | -1.90590 | 21931 ft | 392 kts | 193° |
| 2026-05-06 14:59 | 54.35948 | -1.91766 | 22375 ft | 390 kts | 206° |
| 2026-05-06 15:00 | 54.33595 | -1.94019 | 22802 ft | 388 kts | 215° |
| 2026-05-06 15:00 | 54.31235 | -1.96330 | 23232 ft | 392 kts | 211° |
| 2026-05-06 15:00 | 54.28807 | -1.98488 | 23642 ft | 395 kts | 210° |
| 2026-05-06 15:00 | 54.26346 | -2.00586 | 23986 ft | 397 kts | 209° |
| 2026-05-06 15:01 | 54.23888 | -2.02643 | 24338 ft | 399 kts | 208° |
| 2026-05-06 15:01 | 54.21390 | -2.04722 | 24687 ft | 401 kts | 208° |
| 2026-05-06 15:01 | 54.18972 | -2.06741 | 25017 ft | 403 kts | 209° |
| 2026-05-06 15:01 | 54.16452 | -2.08861 | 25349 ft | 405 kts | 209° |
| 2026-05-06 15:02 | 54.13917 | -2.11005 | 25678 ft | 407 kts | 209° |
| 2026-05-06 15:02 | 54.11376 | -2.13163 | 26018 ft | 409 kts | 209° |
| 2026-05-06 15:02 | 54.08832 | -2.15327 | 26346 ft | 411 kts | 209° |
| 2026-05-06 15:02 | 54.06265 | -2.17507 | 26663 ft | 412 kts | 209° |
| 2026-05-06 15:03 | 54.03694 | -2.19683 | 26985 ft | 414 kts | 209° |
| 2026-05-06 15:03 | 54.01107 | -2.21865 | 27288 ft | 416 kts | 209° |
| 2026-05-06 15:03 | 53.98503 | -2.24053 | 27604 ft | 418 kts | 209° |
| 2026-05-06 15:03 | 53.95928 | -2.26215 | 27912 ft | 420 kts | 209° |
| 2026-05-06 15:04 | 53.93307 | -2.28414 | 28223 ft | 422 kts | 209° |
| 2026-05-06 15:04 | 53.90664 | -2.30631 | 28528 ft | 424 kts | 209° |
| 2026-05-06 15:04 | 53.88014 | -2.32851 | 28829 ft | 426 kts | 208° |
| 2026-05-06 15:04 | 53.85357 | -2.35069 | 29128 ft | 428 kts | 208° |
| 2026-05-06 15:05 | 53.82685 | -2.37301 | 29422 ft | 429 kts | 208° |
| 2026-05-06 15:05 | 53.79999 | -2.39540 | 29705 ft | 431 kts | 208° |
| 2026-05-06 15:05 | 53.77301 | -2.41784 | 29966 ft | 432 kts | 208° |
| 2026-05-06 15:05 | 53.74631 | -2.44002 | 30207 ft | 434 kts | 208° |
| 2026-05-06 15:06 | 53.71910 | -2.46261 | 30433 ft | 436 kts | 208° |
| 2026-05-06 15:06 | 53.69188 | -2.48500 | 30715 ft | 436 kts | 207° |
| 2026-05-06 15:06 | 53.66331 | -2.50219 | 31015 ft | 439 kts | 197° |
| 2026-05-06 15:06 | 53.63312 | -2.51044 | 31313 ft | 442 kts | 186° |
| 2026-05-06 15:07 | 53.60234 | -2.50912 | 31600 ft | 445 kts | 175° |
| 2026-05-06 15:07 | 53.57196 | -2.49824 | 31891 ft | 449 kts | 165° |
| 2026-05-06 15:07 | 53.54279 | -2.47897 | 32186 ft | 450 kts | 159° |
| 2026-05-06 15:07 | 53.51434 | -2.45866 | 32469 ft | 450 kts | 160° |
| 2026-05-06 15:08 | 53.48516 | -2.43805 | 32772 ft | 449 kts | 160° |
| 2026-05-06 15:08 | 53.45642 | -2.41785 | 33065 ft | 448 kts | 160° |
| 2026-05-06 15:08 | 53.43100 | -2.40002 | 33338 ft | 448 kts | 160° |
| 2026-05-06 15:08 | 53.40227 | -2.37988 | 33625 ft | 447 kts | 160° |
| 2026-05-06 15:09 | 53.37367 | -2.35984 | 33919 ft | 447 kts | 160° |
| 2026-05-06 15:09 | 53.34490 | -2.33972 | 34182 ft | 446 kts | 160° |
| 2026-05-06 15:09 | 53.31625 | -2.31973 | 34417 ft | 446 kts | 160° |
| 2026-05-06 15:09 | 53.28765 | -2.29977 | 34611 ft | 446 kts | 160° |
| 2026-05-06 15:10 | 53.25898 | -2.27970 | 34821 ft | 447 kts | 160° |
| 2026-05-06 15:10 | 53.23066 | -2.25984 | 34974 ft | 447 kts | 160° |
| 2026-05-06 15:10 | 53.20169 | -2.23954 | 35035 ft | 445 kts | 160° |
| 2026-05-06 15:11 | 53.14512 | -2.20014 | 35036 ft | 442 kts | 160° |
| 2026-05-06 15:11 | 53.08844 | -2.16086 | 35037 ft | 442 kts | 160° |
| 2026-05-06 15:12 | 53.03155 | -2.12162 | 35044 ft | 442 kts | 160° |
| 2026-05-06 15:12 | 52.97483 | -2.08262 | 35046 ft | 441 kts | 160° |
| 2026-05-06 15:13 | 52.91846 | -2.04390 | 35043 ft | 441 kts | 160° |
| 2026-05-06 15:13 | 52.86132 | -2.00479 | 35042 ft | 441 kts | 160° |
| 2026-05-06 15:14 | 52.80506 | -1.96621 | 35037 ft | 441 kts | 158° |
| 2026-05-06 15:14 | 52.75177 | -1.91501 | 35034 ft | 444 kts | 152° |
| 2026-05-06 15:15 | 52.69908 | -1.86217 | 35030 ft | 444 kts | 152° |
| 2026-05-06 15:15 | 52.64637 | -1.80934 | 35027 ft | 443 kts | 152° |
| 2026-05-06 15:16 | 52.59370 | -1.75652 | 35022 ft | 443 kts | 151° |
| 2026-05-06 15:16 | 52.54130 | -1.70411 | 35022 ft | 443 kts | 152° |
| 2026-05-06 15:17 | 52.48867 | -1.65168 | 35024 ft | 443 kts | 152° |
| 2026-05-06 15:17 | 52.43604 | -1.59940 | 35024 ft | 442 kts | 152° |
| 2026-05-06 15:18 | 52.38333 | -1.54729 | 35021 ft | 442 kts | 152° |
| 2026-05-06 15:18 | 52.33066 | -1.49530 | 35018 ft | 442 kts | 152° |
| 2026-05-06 15:19 | 52.27804 | -1.44345 | 35019 ft | 442 kts | 152° |
| 2026-05-06 15:19 | 52.22509 | -1.39144 | 35018 ft | 442 kts | 152° |
| 2026-05-06 15:20 | 52.17267 | -1.34029 | 35017 ft | 442 kts | 152° |
| 2026-05-06 15:20 | 52.11993 | -1.28895 | 35021 ft | 442 kts | 152° |
| 2026-05-06 15:21 | 52.06725 | -1.23759 | 35009 ft | 441 kts | 152° |
| 2026-05-06 15:21 | 52.01454 | -1.18634 | 34986 ft | 441 kts | 152° |
| 2026-05-06 15:22 | 51.96193 | -1.13542 | 34989 ft | 441 kts | 152° |
| 2026-05-06 15:22 | 51.90952 | -1.08480 | 34987 ft | 441 kts | 152° |
| 2026-05-06 15:23 | 51.85675 | -1.03404 | 34985 ft | 441 kts | 152° |
| 2026-05-06 15:23 | 51.80397 | -0.98351 | 34989 ft | 441 kts | 152° |
| 2026-05-06 15:24 | 51.75902 | -0.94046 | 34988 ft | 441 kts | 152° |
| 2026-05-06 15:24 | 51.70618 | -0.88995 | 34983 ft | 441 kts | 152° |
| 2026-05-06 15:25 | 51.65334 | -0.83960 | 34986 ft | 441 kts | 152° |
| 2026-05-06 15:25 | 51.60135 | -0.79029 | 34984 ft | 441 kts | 152° |
| 2026-05-06 15:26 | 51.54852 | -0.74026 | 34984 ft | 441 kts | 151° |
| 2026-05-06 15:26 | 51.49561 | -0.69026 | 34988 ft | 441 kts | 151° |
| 2026-05-06 15:27 | 51.44260 | -0.64026 | 34988 ft | 441 kts | 151° |
| 2026-05-06 15:27 | 51.38931 | -0.59017 | 34991 ft | 441 kts | 151° |
| 2026-05-06 15:28 | 51.33634 | -0.54060 | 34986 ft | 441 kts | 152° |
| 2026-05-06 15:28 | 51.28371 | -0.49148 | 34981 ft | 441 kts | 151° |
| 2026-05-06 15:29 | 51.23304 | -0.44425 | 34984 ft | 441 kts | 151° |
| 2026-05-06 15:29 | 51.17999 | -0.39497 | 34988 ft | 441 kts | 151° |
| 2026-05-06 15:30 | 51.12697 | -0.34574 | 34991 ft | 441 kts | 151° |
| 2026-05-06 15:30 | 51.07392 | -0.29682 | 34990 ft | 441 kts | 151° |
| 2026-05-06 15:31 | 51.02120 | -0.24825 | 34989 ft | 441 kts | 151° |
| 2026-05-06 15:31 | 50.96811 | -0.19938 | 34966 ft | 441 kts | 151° |
| 2026-05-06 15:32 | 50.88901 | -0.12669 | 34966 ft | 441 kts | 151° |
| 2026-05-06 15:32 | 50.83584 | -0.07825 | 34963 ft | 441 kts | 151° |
| 2026-05-06 15:33 | 50.78271 | -0.02992 | 34962 ft | 441 kts | 151° |
| 2026-05-06 15:33 | 50.72956 | 0.01843 | 34963 ft | 441 kts | 151° |
| 2026-05-06 15:34 | 50.67647 | 0.06647 | 34965 ft | 440 kts | 151° |
| 2026-05-06 15:34 | 50.62313 | 0.11470 | 34988 ft | 444 kts | 151° |
| 2026-05-06 15:35 | 50.56893 | 0.16363 | 34967 ft | 452 kts | 151° |
| 2026-05-06 15:35 | 50.51467 | 0.21241 | 34968 ft | 452 kts | 151° |
| 2026-05-06 15:36 | 50.45994 | 0.26133 | 34965 ft | 453 kts | 151° |
| 2026-05-06 15:36 | 50.40529 | 0.31018 | 34966 ft | 452 kts | 151° |
| 2026-05-06 15:37 | 50.35062 | 0.35905 | 34964 ft | 452 kts | 151° |
| 2026-05-06 15:37 | 50.29629 | 0.40739 | 34965 ft | 452 kts | 151° |
| 2026-05-06 15:38 | 50.24160 | 0.45584 | 34964 ft | 452 kts | 151° |
| 2026-05-06 15:38 | 50.18695 | 0.50427 | 34965 ft | 452 kts | 151° |
| 2026-05-06 15:39 | 50.13227 | 0.55258 | 34965 ft | 452 kts | 151° |
| 2026-05-06 15:39 | 50.07757 | 0.60066 | 34966 ft | 452 kts | 151° |
| 2026-05-06 15:40 | 50.02322 | 0.64836 | 34963 ft | 452 kts | 151° |
| 2026-05-06 15:40 | 49.96847 | 0.69633 | 34959 ft | 452 kts | 151° |
| 2026-05-06 15:41 | 49.91368 | 0.74424 | 34959 ft | 452 kts | 151° |
| 2026-05-06 15:41 | 49.85892 | 0.79194 | 34955 ft | 452 kts | 151° |
| 2026-05-06 15:42 | 49.80442 | 0.83917 | 34955 ft | 452 kts | 152° |
| 2026-05-06 15:42 | 49.74954 | 0.88663 | 34972 ft | 452 kts | 151° |
| 2026-05-06 15:43 | 49.69472 | 0.93399 | 34963 ft | 451 kts | 151° |
| 2026-05-06 15:43 | 49.63994 | 0.98123 | 34958 ft | 451 kts | 152° |
| 2026-05-06 15:44 | 49.58551 | 1.02804 | 34975 ft | 451 kts | 152° |
| 2026-05-06 15:44 | 49.53066 | 1.07501 | 34974 ft | 451 kts | 152° |
| 2026-05-06 15:45 | 49.47584 | 1.12176 | 34965 ft | 451 kts | 152° |
| 2026-05-06 15:45 | 49.42095 | 1.16856 | 34963 ft | 450 kts | 150° |
| 2026-05-06 15:46 | 49.37098 | 1.22531 | 34964 ft | 451 kts | 140° |
| 2026-05-06 15:46 | 49.32557 | 1.29146 | 34963 ft | 451 kts | 135° |
| 2026-05-06 15:47 | 49.28127 | 1.35972 | 34959 ft | 451 kts | 135° |
| 2026-05-06 15:47 | 49.23712 | 1.42785 | 34956 ft | 451 kts | 135° |
| 2026-05-06 15:48 | 49.19259 | 1.49556 | 34944 ft | 451 kts | 136° |
| 2026-05-06 15:48 | 49.14822 | 1.56245 | 34934 ft | 451 kts | 136° |
| 2026-05-06 15:49 | 49.10351 | 1.62971 | 34931 ft | 451 kts | 136° |
| 2026-05-06 15:49 | 49.05884 | 1.69697 | 34931 ft | 451 kts | 136° |
| 2026-05-06 15:50 | 49.01413 | 1.76416 | 34931 ft | 451 kts | 136° |
| 2026-05-06 15:50 | 48.96938 | 1.83113 | 34930 ft | 451 kts | 136° |
| 2026-05-06 15:51 | 48.92479 | 1.89763 | 34928 ft | 451 kts | 136° |
| 2026-05-06 15:51 | 48.88022 | 1.96398 | 34912 ft | 451 kts | 136° |
| 2026-05-06 15:52 | 48.83507 | 2.03100 | 34910 ft | 451 kts | 136° |
| 2026-05-06 15:52 | 48.79017 | 2.09751 | 34914 ft | 451 kts | 136° |
| 2026-05-06 15:53 | 48.74551 | 2.16355 | 34921 ft | 451 kts | 136° |
| 2026-05-06 15:53 | 48.70057 | 2.22978 | 34923 ft | 451 kts | 136° |
| 2026-05-06 15:54 | 48.65556 | 2.29579 | 34912 ft | 451 kts | 137° |
| 2026-05-06 15:54 | 48.61049 | 2.36169 | 34922 ft | 451 kts | 137° |
| 2026-05-06 15:55 | 48.56551 | 2.42755 | 34909 ft | 450 kts | 137° |
| 2026-05-06 15:55 | 48.52049 | 2.49340 | 34916 ft | 451 kts | 137° |
| 2026-05-06 15:56 | 48.47569 | 2.55848 | 34923 ft | 450 kts | 137° |
| 2026-05-06 15:56 | 48.43054 | 2.62391 | 34925 ft | 450 kts | 137° |
| 2026-05-06 15:57 | 48.38541 | 2.68910 | 34914 ft | 449 kts | 137° |
| 2026-05-06 15:57 | 48.34034 | 2.75402 | 34916 ft | 449 kts | 137° |
| 2026-05-06 15:58 | 48.29557 | 2.81844 | 34918 ft | 448 kts | 137° |
| 2026-05-06 15:58 | 48.25052 | 2.88314 | 34922 ft | 448 kts | 137° |
| 2026-05-06 15:59 | 48.20553 | 2.94767 | 34923 ft | 448 kts | 137° |
| 2026-05-06 15:59 | 48.16047 | 3.01206 | 34916 ft | 447 kts | 137° |
| 2026-05-06 16:00 | 48.11567 | 3.07583 | 34909 ft | 447 kts | 137° |
| 2026-05-06 16:00 | 48.07053 | 3.14006 | 34916 ft | 448 kts | 137° |
| 2026-05-06 16:01 | 48.02538 | 3.20411 | 34900 ft | 448 kts | 137° |
| 2026-05-06 16:01 | 47.98042 | 3.26772 | 34900 ft | 448 kts | 137° |
| 2026-05-06 16:02 | 47.93510 | 3.33148 | 34897 ft | 448 kts | 138° |
| 2026-05-06 16:02 | 47.88956 | 3.39535 | 34904 ft | 448 kts | 138° |
| 2026-05-06 16:03 | 47.84495 | 3.45786 | 34914 ft | 438 kts | 138° |
| 2026-05-06 16:03 | 47.80096 | 3.51955 | 34918 ft | 437 kts | 137° |
| 2026-05-06 16:04 | 47.75670 | 3.58148 | 34908 ft | 437 kts | 138° |
| 2026-05-06 16:04 | 47.71249 | 3.64305 | 34908 ft | 436 kts | 138° |
| 2026-05-06 16:05 | 47.66812 | 3.70467 | 34911 ft | 436 kts | 138° |
| 2026-05-06 16:05 | 47.62375 | 3.76609 | 34907 ft | 436 kts | 138° |
| 2026-05-06 16:06 | 47.57979 | 3.82685 | 34907 ft | 436 kts | 138° |
| 2026-05-06 16:06 | 47.53544 | 3.88809 | 34900 ft | 435 kts | 138° |
| 2026-05-06 16:07 | 47.49105 | 3.94909 | 34897 ft | 435 kts | 138° |
| 2026-05-06 16:07 | 47.44702 | 4.00954 | 34893 ft | 435 kts | 138° |
| 2026-05-06 16:08 | 47.40270 | 4.07032 | 34892 ft | 435 kts | 139° |
| 2026-05-06 16:08 | 47.35831 | 4.13089 | 34886 ft | 435 kts | 139° |
| 2026-05-06 16:09 | 47.31388 | 4.19144 | 34880 ft | 435 kts | 139° |
| 2026-05-06 16:09 | 47.26943 | 4.25185 | 34880 ft | 435 kts | 139° |
| 2026-05-06 16:10 | 47.22520 | 4.31174 | 34877 ft | 435 kts | 139° |
| 2026-05-06 16:10 | 47.18064 | 4.37195 | 34881 ft | 435 kts | 139° |
| 2026-05-06 16:11 | 47.13612 | 4.43217 | 34878 ft | 435 kts | 139° |
| 2026-05-06 16:11 | 47.09156 | 4.49231 | 34877 ft | 435 kts | 139° |
| 2026-05-06 16:12 | 47.04697 | 4.55221 | 34875 ft | 435 kts | 140° |
| 2026-05-06 16:12 | 47.00278 | 4.61133 | 34882 ft | 425 kts | 140° |
| 2026-05-06 16:13 | 46.95987 | 4.66871 | 34888 ft | 414 kts | 140° |
| 2026-05-06 16:13 | 46.91736 | 4.72532 | 34887 ft | 413 kts | 140° |
| 2026-05-06 16:14 | 46.87516 | 4.78151 | 34883 ft | 413 kts | 140° |
| 2026-05-06 16:14 | 46.83277 | 4.83791 | 34889 ft | 413 kts | 140° |
| 2026-05-06 16:15 | 46.79025 | 4.89418 | 34884 ft | 412 kts | 141° |
| 2026-05-06 16:15 | 46.74775 | 4.95041 | 34883 ft | 412 kts | 141° |
| 2026-05-06 16:16 | 46.70530 | 5.00651 | 34880 ft | 412 kts | 141° |
| 2026-05-06 16:16 | 46.66305 | 5.06206 | 34885 ft | 412 kts | 141° |
| 2026-05-06 16:17 | 46.62046 | 5.11793 | 34882 ft | 412 kts | 141° |
| 2026-05-06 16:17 | 46.57792 | 5.17365 | 34881 ft | 412 kts | 141° |
| 2026-05-06 16:18 | 46.53537 | 5.22933 | 34882 ft | 412 kts | 141° |
| 2026-05-06 16:18 | 46.49272 | 5.28496 | 34895 ft | 412 kts | 142° |
| 2026-05-06 16:19 | 46.45028 | 5.34010 | 34895 ft | 412 kts | 142° |
| 2026-05-06 16:19 | 46.40754 | 5.39556 | 34894 ft | 413 kts | 142° |
| 2026-05-06 16:20 | 46.36760 | 5.45575 | 34891 ft | 416 kts | 134° |
| 2026-05-06 16:20 | 46.33012 | 5.51973 | 34890 ft | 417 kts | 134° |
| 2026-05-06 16:21 | 46.29273 | 5.58311 | 34891 ft | 416 kts | 135° |
| 2026-05-06 16:21 | 46.25507 | 5.64671 | 34899 ft | 417 kts | 135° |
| 2026-05-06 16:22 | 46.21737 | 5.71025 | 34900 ft | 417 kts | 135° |
| 2026-05-06 16:22 | 46.17963 | 5.77372 | 34899 ft | 417 kts | 135° |
| 2026-05-06 16:23 | 46.14184 | 5.83719 | 34901 ft | 417 kts | 135° |
| 2026-05-06 16:23 | 46.10430 | 5.90009 | 34907 ft | 417 kts | 136° |
| 2026-05-06 16:24 | 46.06648 | 5.96331 | 34902 ft | 416 kts | 136° |
| 2026-05-06 16:24 | 46.02860 | 6.02633 | 34900 ft | 417 kts | 136° |
| 2026-05-06 16:25 | 45.99064 | 6.08941 | 34898 ft | 417 kts | 136° |
| 2026-05-06 16:25 | 45.95271 | 6.15249 | 34897 ft | 417 kts | 137° |
| 2026-05-06 16:26 | 45.91494 | 6.21513 | 34896 ft | 417 kts | 137° |
| 2026-05-06 16:26 | 45.87687 | 6.27798 | 34896 ft | 417 kts | 137° |
| 2026-05-06 16:27 | 45.83880 | 6.34066 | 34900 ft | 417 kts | 137° |
| 2026-05-06 16:27 | 45.79883 | 6.40014 | 34910 ft | 408 kts | 148° |
| 2026-05-06 16:28 | 45.75364 | 6.44757 | 34914 ft | 408 kts | 147° |
| 2026-05-06 16:28 | 45.71039 | 6.50075 | 34920 ft | 410 kts | 145° |
| 2026-05-06 16:29 | 45.66788 | 6.55526 | 34921 ft | 411 kts | 145° |
| 2026-05-06 16:29 | 45.62530 | 6.60980 | 34926 ft | 411 kts | 145° |
| 2026-05-06 16:30 | 45.58979 | 6.65464 | 34926 ft | 410 kts | 146° |
| 2026-05-06 16:30 | 45.53997 | 6.71701 | 34921 ft | 409 kts | 146° |
| 2026-05-06 16:31 | 45.49717 | 6.77047 | 34921 ft | 409 kts | 146° |
| 2026-05-06 16:31 | 45.45441 | 6.82398 | 34913 ft | 409 kts | 146° |
| 2026-05-06 16:32 | 45.41165 | 6.87743 | 34901 ft | 409 kts | 146° |
| 2026-05-06 16:32 | 45.36915 | 6.93037 | 34892 ft | 409 kts | 147° |
| 2026-05-06 16:33 | 45.32637 | 6.98355 | 34878 ft | 409 kts | 147° |
| 2026-05-06 16:34 | 45.26211 | 7.06321 | 34867 ft | 409 kts | 147° |
| 2026-05-06 16:34 | 45.21929 | 7.11620 | 34868 ft | 408 kts | 147° |
| 2026-05-06 16:35 | 45.17684 | 7.16862 | 34863 ft | 407 kts | 147° |
| 2026-05-06 16:35 | 45.13409 | 7.22130 | 34866 ft | 407 kts | 147° |
| 2026-05-06 16:36 | 45.09127 | 7.27382 | 34858 ft | 407 kts | 147° |
| 2026-05-06 16:36 | 45.04848 | 7.32620 | 34870 ft | 407 kts | 148° |
| 2026-05-06 16:37 | 45.00603 | 7.37817 | 34849 ft | 406 kts | 147° |
| 2026-05-06 16:37 | 44.96358 | 7.43105 | 34781 ft | 409 kts | 145° |
| 2026-05-06 16:38 | 44.92293 | 7.48778 | 34779 ft | 413 kts | 143° |
| 2026-05-06 16:38 | 44.88312 | 7.54548 | 34779 ft | 413 kts | 143° |
| 2026-05-06 16:39 | 44.84269 | 7.60284 | 34776 ft | 412 kts | 144° |
| 2026-05-06 16:39 | 44.80197 | 7.65940 | 34775 ft | 412 kts | 144° |
| 2026-05-06 16:40 | 44.76105 | 7.71582 | 34773 ft | 412 kts | 144° |
| 2026-05-06 16:40 | 44.72013 | 7.77235 | 34773 ft | 412 kts | 144° |
| 2026-05-06 16:41 | 44.67952 | 7.82852 | 34769 ft | 413 kts | 145° |
| 2026-05-06 16:41 | 44.63860 | 7.88509 | 34773 ft | 413 kts | 145° |
| 2026-05-06 16:42 | 44.59754 | 7.94169 | 34767 ft | 414 kts | 145° |
| 2026-05-06 16:42 | 44.55638 | 7.99830 | 34768 ft | 414 kts | 145° |
| 2026-05-06 16:43 | 44.51545 | 8.05442 | 34760 ft | 414 kts | 146° |
| 2026-05-06 16:43 | 44.47424 | 8.11090 | 34758 ft | 415 kts | 146° |
| 2026-05-06 16:44 | 44.43301 | 8.16733 | 34764 ft | 415 kts | 146° |
| 2026-05-06 16:44 | 44.39165 | 8.22367 | 34766 ft | 415 kts | 146° |
| 2026-05-06 16:45 | 44.35050 | 8.27951 | 34782 ft | 415 kts | 146° |
| 2026-05-06 16:45 | 44.30908 | 8.33575 | 34783 ft | 416 kts | 146° |
| 2026-05-06 16:46 | 44.26762 | 8.39197 | 34793 ft | 416 kts | 146° |
| 2026-05-06 16:46 | 44.22597 | 8.44825 | 34797 ft | 417 kts | 146° |
| 2026-05-06 16:47 | 44.18400 | 8.50470 | 34827 ft | 425 kts | 146° |
| 2026-05-06 16:47 | 44.14100 | 8.56235 | 34837 ft | 437 kts | 146° |
| 2026-05-06 16:48 | 44.09712 | 8.62128 | 34840 ft | 440 kts | 145° |
| 2026-05-06 16:48 | 44.05308 | 8.68053 | 34848 ft | 441 kts | 145° |
| 2026-05-06 16:49 | 44.00896 | 8.73972 | 34848 ft | 441 kts | 145° |
| 2026-05-06 16:49 | 43.96495 | 8.79843 | 34855 ft | 442 kts | 146° |
| 2026-05-06 16:50 | 43.92066 | 8.85738 | 34852 ft | 442 kts | 146° |
| 2026-05-06 16:50 | 43.87628 | 8.91641 | 34854 ft | 442 kts | 146° |
| 2026-05-06 16:51 | 43.83176 | 8.97529 | 34855 ft | 442 kts | 146° |
| 2026-05-06 16:51 | 43.78729 | 9.03415 | 34862 ft | 443 kts | 145° |
| 2026-05-06 16:52 | 43.74302 | 9.09265 | 34863 ft | 443 kts | 146° |
| 2026-05-06 16:52 | 43.69851 | 9.15134 | 34865 ft | 443 kts | 146° |
| 2026-05-06 16:53 | 43.65378 | 9.21006 | 34859 ft | 443 kts | 146° |
| 2026-05-06 16:53 | 43.60899 | 9.26872 | 34868 ft | 444 kts | 146° |
| 2026-05-06 16:54 | 43.56447 | 9.32702 | 34869 ft | 444 kts | 146° |
| 2026-05-06 16:54 | 43.51957 | 9.38567 | 34872 ft | 445 kts | 146° |
| 2026-05-06 16:55 | 43.47454 | 9.44427 | 34869 ft | 445 kts | 146° |
| 2026-05-06 16:55 | 43.42952 | 9.50281 | 34873 ft | 446 kts | 145° |
| 2026-05-06 16:56 | 43.38470 | 9.56100 | 34876 ft | 446 kts | 146° |
| 2026-05-06 16:56 | 43.33943 | 9.61957 | 34882 ft | 447 kts | 146° |
| 2026-05-06 16:57 | 43.29406 | 9.67812 | 34892 ft | 448 kts | 145° |
| 2026-05-06 16:57 | 43.24873 | 9.73672 | 34890 ft | 448 kts | 145° |
| 2026-05-06 16:58 | 43.20356 | 9.79489 | 34892 ft | 448 kts | 145° |
| 2026-05-06 16:58 | 43.15807 | 9.85320 | 34891 ft | 448 kts | 145° |
| 2026-05-06 16:59 | 43.11252 | 9.91148 | 34887 ft | 449 kts | 145° |
| 2026-05-06 16:59 | 43.06690 | 9.96983 | 34889 ft | 449 kts | 145° |
| 2026-05-06 17:00 | 43.02102 | 10.02827 | 34886 ft | 452 kts | 145° |
| 2026-05-06 17:00 | 42.97530 | 10.08653 | 34901 ft | 452 kts | 145° |
| 2026-05-06 17:01 | 42.92941 | 10.14487 | 34895 ft | 452 kts | 145° |
| 2026-05-06 17:01 | 42.88321 | 10.20339 | 34577 ft | 455 kts | 145° |
| 2026-05-06 17:01 | 42.86001 | 10.23266 | 33385 ft | 458 kts | 145° |
| 2026-05-06 17:02 | 42.83688 | 10.26193 | 32910 ft | 442 kts | 145° |
| 2026-05-06 17:02 | 42.81476 | 10.29009 | 32405 ft | 428 kts | 145° |
| 2026-05-06 17:02 | 42.79348 | 10.31707 | 31920 ft | 424 kts | 145° |
| 2026-05-06 17:02 | 42.77196 | 10.34431 | 31418 ft | 423 kts | 143° |
| 2026-05-06 17:03 | 42.75275 | 10.37520 | 30898 ft | 432 kts | 130° |
| 2026-05-06 17:03 | 42.73834 | 10.41140 | 30412 ft | 440 kts | 117° |
| 2026-05-06 17:03 | 42.72960 | 10.45171 | 29881 ft | 447 kts | 103° |
| 2026-05-06 17:03 | 42.72698 | 10.49390 | 29349 ft | 448 kts | 95° |
| 2026-05-06 17:04 | 42.72560 | 10.53604 | 28853 ft | 444 kts | 96° |
| 2026-05-06 17:04 | 42.72407 | 10.57755 | 28629 ft | 434 kts | 96° |
| 2026-05-06 17:04 | 42.72251 | 10.61725 | 28375 ft | 419 kts | 96° |
| 2026-05-06 17:04 | 42.72044 | 10.65622 | 27947 ft | 405 kts | 104° |
| 2026-05-06 17:05 | 42.71246 | 10.69237 | 27688 ft | 399 kts | 123° |
| 2026-05-06 17:05 | 42.69660 | 10.72283 | 27436 ft | 394 kts | 143° |
| 2026-05-06 17:05 | 42.67474 | 10.74392 | 27180 ft | 380 kts | 163° |
| 2026-05-06 17:05 | 42.64996 | 10.75323 | 26921 ft | 363 kts | 183° |
| 2026-05-06 17:06 | 42.62536 | 10.75073 | 26670 ft | 350 kts | 200° |
| 2026-05-06 17:06 | 42.60326 | 10.73836 | 26418 ft | 340 kts | 217° |
| 2026-05-06 17:06 | 42.58561 | 10.71830 | 26164 ft | 334 kts | 232° |
| 2026-05-06 17:06 | 42.57321 | 10.69207 | 25906 ft | 331 kts | 247° |
| 2026-05-06 17:07 | 42.56716 | 10.66212 | 25669 ft | 332 kts | 262° |
| 2026-05-06 17:07 | 42.56792 | 10.63076 | 25428 ft | 336 kts | 278° |
| 2026-05-06 17:07 | 42.57567 | 10.60062 | 25181 ft | 343 kts | 294° |
| 2026-05-06 17:07 | 42.59029 | 10.57447 | 24945 ft | 353 kts | 312° |
| 2026-05-06 17:08 | 42.61078 | 10.55546 | 24716 ft | 365 kts | 330° |
| 2026-05-06 17:08 | 42.63544 | 10.54622 | 24474 ft | 376 kts | 350° |
| 2026-05-06 17:08 | 42.66178 | 10.54879 | 24242 ft | 386 kts | 11° |
| 2026-05-06 17:08 | 42.68614 | 10.56353 | 24017 ft | 392 kts | 33° |
| 2026-05-06 17:09 | 42.70560 | 10.58940 | 23786 ft | 394 kts | 56° |
| 2026-05-06 17:09 | 42.71715 | 10.62289 | 23563 ft | 391 kts | 78° |
| 2026-05-06 17:09 | 42.71899 | 10.65921 | 23306 ft | 383 kts | 102° |
| 2026-05-06 17:09 | 42.71096 | 10.69289 | 23040 ft | 371 kts | 125° |
| 2026-05-06 17:10 | 42.69509 | 10.71970 | 22772 ft | 360 kts | 143° |
| 2026-05-06 17:10 | 42.67676 | 10.74306 | 22498 ft | 362 kts | 138° |
| 2026-05-06 17:10 | 42.66032 | 10.77016 | 22238 ft | 388 kts | 129° |
| 2026-05-06 17:10 | 42.64539 | 10.80157 | 21976 ft | 413 kts | 126° |
| 2026-05-06 17:11 | 42.62993 | 10.83518 | 21713 ft | 423 kts | 125° |
| 2026-05-06 17:11 | 42.61454 | 10.86933 | 21449 ft | 425 kts | 125° |
| 2026-05-06 17:11 | 42.59922 | 10.90363 | 21202 ft | 424 kts | 125° |
| 2026-05-06 17:11 | 42.58392 | 10.93788 | 20945 ft | 423 kts | 125° |
| 2026-05-06 17:12 | 42.56866 | 10.97186 | 20689 ft | 421 kts | 125° |
| 2026-05-06 17:12 | 42.55341 | 11.00563 | 20448 ft | 420 kts | 125° |
| 2026-05-06 17:12 | 42.53816 | 11.03924 | 20205 ft | 418 kts | 125° |
| 2026-05-06 17:12 | 42.52307 | 11.07224 | 19951 ft | 416 kts | 125° |
| 2026-05-06 17:13 | 42.50811 | 11.10593 | 19417 ft | 416 kts | 124° |
| 2026-05-06 17:13 | 42.49367 | 11.14025 | 18905 ft | 413 kts | 122° |
| 2026-05-06 17:13 | 42.48009 | 11.17367 | 18419 ft | 409 kts | 122° |
| 2026-05-06 17:13 | 42.46655 | 11.20748 | 17879 ft | 406 kts | 122° |
| 2026-05-06 17:14 | 42.45312 | 11.24096 | 17398 ft | 402 kts | 122° |
| 2026-05-06 17:14 | 42.43973 | 11.27393 | 16916 ft | 399 kts | 122° |
| 2026-05-06 17:14 | 42.42630 | 11.30657 | 16606 ft | 389 kts | 122° |
| 2026-05-06 17:14 | 42.41342 | 11.33765 | 16183 ft | 372 kts | 123° |
| 2026-05-06 17:15 | 42.40083 | 11.36792 | 15581 ft | 367 kts | 123° |
| 2026-05-06 17:15 | 42.38849 | 11.39745 | 15155 ft | 365 kts | 123° |
| 2026-05-06 17:15 | 42.37600 | 11.42733 | 14734 ft | 363 kts | 122° |
| 2026-05-06 17:15 | 42.36365 | 11.45692 | 14300 ft | 362 kts | 122° |
| 2026-05-06 17:16 | 42.35130 | 11.48657 | 13885 ft | 360 kts | 122° |
| 2026-05-06 17:16 | 42.33901 | 11.51604 | 13418 ft | 360 kts | 122° |
| 2026-05-06 17:16 | 42.32675 | 11.54538 | 12985 ft | 357 kts | 122° |
| 2026-05-06 17:16 | 42.31459 | 11.57454 | 12570 ft | 354 kts | 122° |
| 2026-05-06 17:17 | 42.30260 | 11.60329 | 12149 ft | 351 kts | 122° |
| 2026-05-06 17:17 | 42.29060 | 11.63201 | 11718 ft | 349 kts | 122° |
| 2026-05-06 17:17 | 42.27875 | 11.66030 | 11278 ft | 347 kts | 122° |
| 2026-05-06 17:17 | 42.26683 | 11.68871 | 10854 ft | 344 kts | 122° |
| 2026-05-06 17:18 | 42.25511 | 11.71660 | 10516 ft | 338 kts | 122° |
| 2026-05-06 17:18 | 42.24393 | 11.74333 | 10381 ft | 315 kts | 123° |
| 2026-05-06 17:18 | 42.23341 | 11.76853 | 10038 ft | 303 kts | 122° |
| 2026-05-06 17:18 | 42.22311 | 11.79307 | 9450 ft | 300 kts | 122° |
| 2026-05-06 17:19 | 42.21288 | 11.81724 | 8846 ft | 298 kts | 123° |
| 2026-05-06 17:19 | 42.20285 | 11.84100 | 8725 ft | 287 kts | 123° |
| 2026-05-06 17:19 | 42.19317 | 11.86394 | 8588 ft | 277 kts | 123° |
| 2026-05-06 17:19 | 42.18384 | 11.88610 | 8459 ft | 267 kts | 123° |
| 2026-05-06 17:20 | 42.17480 | 11.90751 | 8222 ft | 257 kts | 123° |
| 2026-05-06 17:20 | 42.16605 | 11.92809 | 7887 ft | 246 kts | 123° |
| 2026-05-06 17:20 | 42.15757 | 11.94798 | 7363 ft | 248 kts | 123° |
| 2026-05-06 17:20 | 42.14885 | 11.96844 | 6810 ft | 252 kts | 123° |
| 2026-05-06 17:21 | 42.14027 | 11.98877 | 6589 ft | 248 kts | 122° |
| 2026-05-06 17:21 | 42.13511 | 12.01097 | 6336 ft | 252 kts | 100° |
| 2026-05-06 17:21 | 42.13099 | 12.03361 | 6201 ft | 245 kts | 124° |
| 2026-05-06 17:21 | 42.11929 | 12.04854 | 6165 ft | 232 kts | 154° |
| 2026-05-06 17:22 | 42.10517 | 12.05804 | 6055 ft | 222 kts | 158° |
| 2026-05-06 17:22 | 42.09125 | 12.06669 | 5821 ft | 220 kts | 158° |
| 2026-05-06 17:22 | 42.07878 | 12.07484 | 5568 ft | 220 kts | 156° |
| 2026-05-06 17:22 | 42.06526 | 12.08429 | 5271 ft | 221 kts | 154° |
| 2026-05-06 17:23 | 42.05176 | 12.09436 | 4978 ft | 221 kts | 153° |
| 2026-05-06 17:23 | 42.03841 | 12.10478 | 4673 ft | 222 kts | 153° |
| 2026-05-06 17:23 | 42.02961 | 12.11183 | 4482 ft | 223 kts | 153° |
| 2026-05-06 17:23 | 42.01640 | 12.12255 | 4184 ft | 223 kts | 152° |
| 2026-05-06 17:24 | 41.99902 | 12.13689 | 3938 ft | 217 kts | 152° |
| 2026-05-06 17:24 | 41.98640 | 12.14741 | 3765 ft | 212 kts | 151° |
| 2026-05-06 17:24 | 41.97376 | 12.15777 | 3398 ft | 215 kts | 155° |
| 2026-05-06 17:24 | 41.95978 | 12.16555 | 2985 ft | 219 kts | 163° |
| 2026-05-06 17:25 | 41.94528 | 12.17187 | 2663 ft | 220 kts | 164° |
| 2026-05-06 17:25 | 41.93537 | 12.17603 | 2460 ft | 220 kts | 164° |
| 2026-05-06 17:25 | 41.92092 | 12.18209 | 2163 ft | 213 kts | 164° |
| 2026-05-06 17:25 | 41.90725 | 12.18784 | 1877 ft | 199 kts | 164° |
| 2026-05-06 17:26 | 41.89466 | 12.19313 | 1626 ft | 187 kts | 164° |
| 2026-05-06 17:26 | 41.88263 | 12.19819 | 1402 ft | 173 kts | 164° |
| 2026-05-06 17:26 | 41.87156 | 12.20284 | 1187 ft | 159 kts | 162° |
| 2026-05-06 17:26 | 41.86146 | 12.20708 | 990 ft | 147 kts | 162° |
| 2026-05-06 17:27 | 41.85184 | 12.21111 | 795 ft | 144 kts | 162° |
| 2026-05-06 17:27 | 41.84230 | 12.21511 | 614 ft | 143 kts | 161° |
| 2026-05-06 17:27 | 41.83355 | 12.21895 | 455 ft | 142 kts | 162° |
| 2026-05-06 17:27 | 41.82365 | 12.22296 | 295 ft | 145 kts | 162° |
| 2026-05-06 17:28 | 41.81422 | 12.22689 | 51 ft | 141 kts | 161° |
| 2026-05-06 17:28 | 41.80615 | 12.23029 | 15 ft | 70 kts | 163° |
| 2026-05-06 17:28 | 41.80252 | 12.23184 | 16 ft | 50 kts | 163° |
| 2026-05-06 17:28 | 41.79960 | 12.23306 | 17 ft | 39 kts | 163° |
| 2026-05-06 17:29 | 41.79705 | 12.23415 | 14 ft | 37 kts | 161° |
| 2026-05-06 17:29 | 41.79507 | 12.23554 | 14 ft | 30 kts | 142° |
| 2026-05-06 17:29 | 41.79372 | 12.23737 | 15 ft | 20 kts | 131° |
| 2026-05-06 17:29 | 41.79345 | 12.23778 | 15 ft | 0 kts | 132° |
| 2026-05-06 17:30 | 41.79340 | 12.23785 | 16 ft | 2 kts | 131° |
| 2026-05-06 17:30 | 41.79329 | 12.23805 | 15 ft | 4 kts | 125° |
| 2026-05-06 17:31 | 41.79317 | 12.23846 | 17 ft | 6 kts | 104° |
| 2026-05-06 17:31 | 41.79320 | 12.23913 | 15 ft | 9 kts | 73° |
| 2026-05-06 17:31 | 41.79347 | 12.24010 | 14 ft | 13 kts | 69° |
| 2026-05-06 17:31 | 41.79374 | 12.24146 | 14 ft | 17 kts | 69° |
| 2026-05-06 17:32 | 41.79369 | 12.24303 | 15 ft | 19 kts | 123° |
| 2026-05-06 17:32 | 41.79300 | 12.24447 | 15 ft | 16 kts | 110° |
| 2026-05-06 17:32 | 41.79314 | 12.24595 | 14 ft | 17 kts | 78° |
| 2026-05-06 17:32 | 41.79336 | 12.24744 | 14 ft | 10 kts | 78° |
| 2026-05-06 17:33 | 41.79361 | 12.24759 | 14 ft | 3 kts | 6° |
| 2026-05-06 17:33 | 41.79386 | 12.24755 | 16 ft | 3 kts | 346° |
| 2026-05-06 17:33 | 41.79405 | 12.24749 | 14 ft | 0 kts | 347° |